^^
Your Local Weather - Clay, NY Station Historical Data
Daily Summary for September 16, 2017 Units:  English    Metric   Both
« Previous Day
Next Day »
Daily Weekly Monthly Yearly Custom
  High: Low: Average:
Temperature: 81.4 °F 55.5 °F 66.1 °F
Dew Point: 67.8 °F 54.0 °F 60.2 °F
Humidity: 95% 53% 83%
Wind Speed: 3.0mph 0.0mph 0.4mph
Wind Gust: 6.0mph - -
Wind- - SW
Pressure: 30.17 in 30.09 in -
Precipitation: 0.00 in    
Historical Graphs
 
 
Tabular Data for September 16, 2017
Time Temperature Dew Point Pressure Wind Wind Speed Wind Gust Humidity Rainfall Rate (Hourly) solar
00:03 60.0 °F 58.0 °F 30.10 in Calm     93% 0.00 in 0 W/m2
00:10 60.2 °F 58.2 °F 30.10 in Calm     93% 0.00 in 0 W/m2
00:15 60.2 °F 58.2 °F 30.10 in Calm     93% 0.00 in 0 W/m2
00:22 60.0 °F 58.0 °F 30.10 in Calm     93% 0.00 in 0 W/m2
00:28 59.8 °F 57.8 °F 30.10 in Calm     93% 0.00 in 0 W/m2
00:34 60.0 °F 58.0 °F 30.10 in Calm     93% 0.00 in 0 W/m2
00:39 60.0 °F 58.0 °F 30.10 in Calm     93% 0.00 in 0 W/m2
00:46 60.0 °F 58.0 °F 30.10 in Calm     93% 0.00 in 0 W/m2
00:52 59.9 °F 57.9 °F 30.10 in Calm     93% 0.00 in 0 W/m2
00:58 59.6 °F 57.6 °F 30.10 in Calm     93% 0.00 in 0 W/m2
01:03 59.5 °F 57.5 °F 30.10 in Calm     93% 0.00 in 0 W/m2
01:09 59.3 °F 57.3 °F 30.10 in Calm     93% 0.00 in 0 W/m2
01:15 59.2 °F 57.5 °F 30.10 in Calm     94% 0.00 in 0 W/m2
01:22 59.1 °F 57.4 °F 30.10 in Calm     94% 0.00 in 0 W/m2
01:28 59.2 °F 57.5 °F 30.10 in Calm     94% 0.00 in 0 W/m2
01:33 59.1 °F 57.4 °F 30.10 in Calm     94% 0.00 in 0 W/m2
01:39 58.9 °F 57.2 °F 30.10 in Calm     94% 0.00 in 0 W/m2
01:45 58.9 °F 57.2 °F 30.10 in Calm     94% 0.00 in 0 W/m2
01:52 58.7 °F 57.0 °F 30.10 in Calm     94% 0.00 in 0 W/m2
02:03 58.5 °F 56.8 °F 30.10 in Calm     94% 0.00 in 0 W/m2
02:09 58.5 °F 56.8 °F 30.11 in Calm     94% 0.00 in 0 W/m2
02:15 58.4 °F 56.7 °F 30.11 in Calm     94% 0.00 in 0 W/m2
02:22 58.4 °F 56.7 °F 30.11 in Calm     94% 0.00 in 0 W/m2
02:28 58.2 °F 56.5 °F 30.11 in Calm     94% 0.00 in 0 W/m2
02:34 58.1 °F 56.4 °F 30.10 in Calm     94% 0.00 in 0 W/m2
02:40 58.0 °F 56.3 °F 30.11 in Calm     94% 0.00 in 0 W/m2
02:45 57.9 °F 56.2 °F 30.11 in Calm     94% 0.00 in 0 W/m2
02:52 57.6 °F 55.9 °F 30.11 in Calm     94% 0.00 in 0 W/m2
02:58 57.5 °F 55.8 °F 30.11 in Calm     94% 0.00 in 0 W/m2
03:03 57.5 °F 55.8 °F 30.11 in Calm     94% 0.00 in 0 W/m2
03:10 57.5 °F 55.8 °F 30.11 in Calm     94% 0.00 in 0 W/m2
03:15 57.4 °F 55.7 °F 30.11 in Calm     94% 0.00 in 0 W/m2
03:18 57.3 °F 55.6 °F 30.11 in Calm     94% 0.00 in 0 W/m2
03:23 57.1 °F 55.4 °F 30.11 in Calm     94% 0.00 in 0 W/m2
03:29 57.1 °F 55.4 °F 30.12 in Calm     94% 0.00 in 0 W/m2
03:35 57.1 °F 55.4 °F 30.12 in Calm     94% 0.00 in 0 W/m2
03:42 57.0 °F 55.3 °F 30.12 in Calm     94% 0.00 in 0 W/m2
03:48 56.9 °F 55.2 °F 30.12 in Calm     94% 0.00 in 0 W/m2
03:53 56.8 °F 55.1 °F 30.12 in Calm     94% 0.00 in 0 W/m2
04:00 56.7 °F 55.0 °F 30.12 in Calm     94% 0.00 in 0 W/m2
04:06 56.6 °F 54.9 °F 30.12 in Calm     94% 0.00 in 0 W/m2
04:12 56.5 °F 54.8 °F 30.12 in Calm     94% 0.00 in 0 W/m2
04:18 56.5 °F 54.8 °F 30.12 in Calm     94% 0.00 in 0 W/m2
04:23 56.5 °F 54.8 °F 30.12 in Calm     94% 0.00 in 0 W/m2
04:29 56.5 °F 54.8 °F 30.12 in Calm     94% 0.00 in 0 W/m2
04:35 56.3 °F 54.6 °F 30.12 in Calm     94% 0.00 in 0 W/m2
04:42 56.2 °F 54.5 °F 30.12 in Calm     94% 0.00 in 0 W/m2
04:48 56.2 °F 54.5 °F 30.12 in Calm     94% 0.00 in 0 W/m2
04:53 56.1 °F 54.4 °F 30.12 in Calm     94% 0.00 in 0 W/m2
05:00 56.0 °F 54.3 °F 30.12 in Calm     94% 0.00 in 0 W/m2
05:05 55.8 °F 54.1 °F 30.12 in Calm     94% 0.00 in 0 W/m2
05:12 55.7 °F 54.0 °F 30.12 in Calm     94% 0.00 in 0 W/m2
05:18 55.7 °F 54.0 °F 30.12 in Calm     94% 0.00 in 0 W/m2
05:23 55.7 °F 54.0 °F 30.12 in Calm     94% 0.00 in 0 W/m2
05:29 55.7 °F 54.3 °F 30.12 in Calm     95% 0.00 in 0 W/m2
05:35 55.6 °F 54.2 °F 30.12 in Calm     95% 0.00 in 0 W/m2
05:42 55.5 °F 54.1 °F 30.12 in Calm     95% 0.00 in 0 W/m2
05:48 55.6 °F 54.2 °F 30.12 in Calm     95% 0.00 in 0 W/m2
05:55 55.5 °F 54.1 °F 30.12 in Calm     95% 0.00 in 0 W/m2
06:02 55.7 °F 54.3 °F 30.12 in Calm     95% 0.00 in 0 W/m2
06:08 55.8 °F 54.4 °F 30.12 in Calm     95% 0.00 in 0 W/m2
06:13 55.8 °F 54.4 °F 30.13 in Calm     95% 0.00 in 0 W/m2
06:19 55.7 °F 54.3 °F 30.13 in Calm     95% 0.00 in 0 W/m2
06:25 55.7 °F 54.3 °F 30.13 in Calm     95% 0.00 in 0 W/m2
06:32 55.9 °F 54.5 °F 30.13 in Calm     95% 0.00 in 0 W/m2
06:38 56.0 °F 54.6 °F 30.13 in Calm     95% 0.00 in 0 W/m2
06:44 55.9 °F 54.5 °F 30.13 in Calm     95% 0.00 in 0 W/m2
06:49 55.8 °F 54.4 °F 30.13 in Calm     95% 0.00 in 5 W/m2
06:55 55.7 °F 54.3 °F 30.13 in Calm     95% 0.00 in 9 W/m2
07:02 55.5 °F 54.1 °F 30.14 in Calm     95% 0.00 in 16 W/m2
07:08 55.6 °F 54.2 °F 30.14 in Calm     95% 0.00 in 19 W/m2
07:14 55.7 °F 54.3 °F 30.14 in Calm     95% 0.00 in 26 W/m2
07:19 55.7 °F 54.3 °F 30.15 in Calm     95% 0.00 in 30 W/m2
07:25 55.8 °F 54.4 °F 30.15 in Calm     95% 0.00 in 37 W/m2
07:32 56.0 °F 54.6 °F 30.15 in Calm     95% 0.00 in 42 W/m2
07:43 56.5 °F 55.1 °F 30.15 in Calm     95% 0.00 in 54 W/m2
07:49 57.0 °F 55.6 °F 30.15 in Calm     95% 0.00 in 58 W/m2
07:55 57.3 °F 55.9 °F 30.15 in Calm     95% 0.00 in 63 W/m2
08:02 57.7 °F 56.3 °F 30.15 in Calm     95% 0.00 in 72 W/m2
08:08 58.0 °F 56.6 °F 30.15 in Calm     95% 0.00 in 76 W/m2
08:14 58.4 °F 57.0 °F 30.15 in Calm     95% 0.00 in 120 W/m2
08:19 59.2 °F 57.8 °F 30.16 in Calm     95% 0.00 in 88 W/m2
08:25 59.9 °F 58.5 °F 30.16 in Calm     95% 0.00 in 105 W/m2
08:32 60.4 °F 59.0 °F 30.16 in Calm     95% 0.00 in 97 W/m2
08:38 60.9 °F 59.5 °F 30.16 in Calm     95% 0.00 in 109 W/m2
08:43 61.1 °F 59.7 °F 30.16 in Calm     95% 0.00 in 120 W/m2
08:49 61.5 °F 60.1 °F 30.16 in Calm     95% 0.00 in 114 W/m2
08:55 61.9 °F 60.5 °F 30.16 in Calm     95% 0.00 in 134 W/m2
09:02 62.1 °F 60.7 °F 30.16 in Calm     95% 0.00 in 132 W/m2
09:08 62.6 °F 61.1 °F 30.16 in Calm   2.0 mph 95% 0.00 in 169 W/m2
09:14 63.0 °F 61.5 °F 30.16 in Calm   2.0 mph 95% 0.00 in 163 W/m2
09:19 63.5 °F 62.0 °F 30.16 in Calm     95% 0.00 in 149 W/m2
09:25 63.8 °F 62.3 °F 30.16 in WNW 1.0 mph 2.0 mph 95% 0.00 in 176 W/m2
09:32 64.0 °F 62.5 °F 30.17 in WSW 1.0 mph 1.0 mph 95% 0.00 in 155 W/m2
09:38 64.5 °F 63.0 °F 30.17 in Calm   1.0 mph 95% 0.00 in 193 W/m2
09:43 64.9 °F 63.4 °F 30.17 in Calm   2.0 mph 95% 0.00 in 352 W/m2
09:50 65.6 °F 64.1 °F 30.16 in WSW 1.0 mph 1.0 mph 95% 0.00 in 397 W/m2
09:55 66.2 °F 64.4 °F 30.16 in SW 1.0 mph 1.0 mph 94% 0.00 in 411 W/m2
10:02 67.3 °F 65.5 °F 30.16 in Calm   1.0 mph 94% 0.00 in 432 W/m2
10:08 68.2 °F 64.2 °F 30.16 in Calm   2.0 mph 87% 0.00 in 461 W/m2
10:13 69.1 °F 65.4 °F 30.16 in Calm   1.0 mph 88% 0.00 in 487 W/m2
10:19 69.5 °F 65.1 °F 30.16 in Calm     86% 0.00 in 504 W/m2
10:25 69.9 °F 64.8 °F 30.16 in Calm   4.0 mph 84% 0.00 in 508 W/m2
10:32 70.0 °F 64.9 °F 30.16 in SSE 1.0 mph 3.0 mph 84% 0.00 in 536 W/m2
10:38 70.5 °F 64.7 °F 30.16 in SSW 1.0 mph 3.0 mph 82% 0.00 in 554 W/m2
10:43 70.9 °F 64.4 °F 30.16 in WSW 1.0 mph 1.0 mph 80% 0.00 in 564 W/m2
10:49 70.9 °F 64.4 °F 30.16 in WSW 1.0 mph 1.0 mph 80% 0.00 in 573 W/m2
10:56 71.5 °F 65.0 °F 30.16 in WSW 1.0 mph 2.0 mph 80% 0.00 in 582 W/m2
11:02 71.8 °F 65.3 °F 30.16 in Calm   1.0 mph 80% 0.00 in 598 W/m2
11:08 71.7 °F 64.5 °F 30.16 in Calm   1.0 mph 78% 0.00 in 608 W/m2
11:13 72.8 °F 65.9 °F 30.16 in SSW 1.0 mph 3.0 mph 79% 0.00 in 629 W/m2
11:19 73.2 °F 64.8 °F 30.16 in SSW 2.0 mph 2.0 mph 75% 0.00 in 628 W/m2
11:26 73.7 °F 66.4 °F 30.15 in SSW 1.0 mph 3.0 mph 78% 0.00 in 642 W/m2
11:32 74.5 °F 65.7 °F 30.15 in SE 1.0 mph 1.0 mph 74% 0.00 in 656 W/m2
11:38 74.3 °F 66.6 °F 30.15 in SSE 1.0 mph 3.0 mph 77% 0.00 in 661 W/m2
11:43 74.3 °F 66.6 °F 30.15 in SW 2.0 mph 3.0 mph 77% 0.00 in 670 W/m2
11:49 75.3 °F 66.4 °F 30.15 in South 1.0 mph 3.0 mph 74% 0.00 in 673 W/m2
11:56 75.0 °F 65.4 °F 30.15 in SSE 2.0 mph 3.0 mph 72% 0.00 in 675 W/m2
12:02 75.2 °F 64.7 °F 30.15 in SSE 1.0 mph 3.0 mph 70% 0.00 in 684 W/m2
12:08 75.4 °F 65.7 °F 30.15 in SSE 1.0 mph 3.0 mph 72% 0.00 in 693 W/m2
12:13 75.6 °F 64.3 °F 30.15 in SSE 2.0 mph 2.0 mph 68% 0.00 in 700 W/m2
12:19 76.6 °F 65.7 °F 30.14 in Calm     69% 0.00 in 700 W/m2
12:26 76.3 °F 64.1 °F 30.14 in SSE 1.0 mph 2.0 mph 66% 0.00 in 703 W/m2
12:32 76.7 °F 64.9 °F 30.14 in NW 1.0 mph 1.0 mph 67% 0.00 in 703 W/m2
12:38 77.1 °F 67.8 °F 30.14 in NW 1.0 mph 1.0 mph 73% 0.00 in 701 W/m2
12:43 77.7 °F 65.9 °F 30.14 in Calm   3.0 mph 67% 0.00 in 707 W/m2
12:50 78.0 °F 63.9 °F 30.14 in NNE 1.0 mph 4.0 mph 62% 0.00 in 724 W/m2
12:55 77.9 °F 65.6 °F 30.14 in North 2.0 mph 4.0 mph 66% 0.00 in 744 W/m2
13:02 78.2 °F 64.6 °F 30.13 in North 1.0 mph 2.0 mph 63% 0.00 in 722 W/m2
13:08 78.6 °F 64.9 °F 30.14 in North 1.0 mph 5.0 mph 63% 0.00 in 724 W/m2
13:13 78.3 °F 63.7 °F 30.14 in NNW 1.0 mph 1.0 mph 61% 0.00 in 737 W/m2
13:19 78.5 °F 65.8 °F 30.14 in NNW 1.0 mph 1.0 mph 65% 0.00 in 740 W/m2
13:25 78.4 °F 66.1 °F 30.14 in NNW 2.0 mph 2.0 mph 66% 0.00 in 735 W/m2
13:32 79.0 °F 64.9 °F 30.14 in NNW 1.0 mph 1.0 mph 62% 0.00 in 745 W/m2
13:38 79.0 °F 64.4 °F 30.14 in Calm   1.0 mph 61% 0.00 in 738 W/m2
13:43 79.0 °F 67.1 °F 30.13 in North 1.0 mph 2.0 mph 67% 0.00 in 297 W/m2
13:49 78.0 °F 64.4 °F 30.13 in North 1.0 mph 1.0 mph 63% 0.00 in 195 W/m2
13:55 77.5 °F 64.4 °F 30.13 in North 1.0 mph 3.0 mph 64% 0.00 in 221 W/m2
14:02 77.4 °F 64.3 °F 30.13 in Calm     64% 0.00 in 232 W/m2
14:08 78.4 °F 63.8 °F 30.13 in NNW 1.0 mph 4.0 mph 61% 0.00 in 691 W/m2
14:13 78.9 °F 63.4 °F 30.13 in NNW 2.0 mph 2.0 mph 59% 0.00 in 687 W/m2
14:19 78.8 °F 64.2 °F 30.12 in ENE 1.0 mph 1.0 mph 61% 0.00 in 679 W/m2
14:25 78.5 °F 63.9 °F 30.12 in ENE 1.0 mph 1.0 mph 61% 0.00 in 649 W/m2
14:32 79.0 °F 63.9 °F 30.12 in NW 1.0 mph 2.0 mph 60% 0.00 in 668 W/m2
14:38 78.8 °F 64.7 °F 30.11 in SE 1.0 mph 2.0 mph 62% 0.00 in 679 W/m2
14:43 79.7 °F 63.6 °F 30.11 in SE 1.0 mph 2.0 mph 58% 0.00 in 650 W/m2
14:50 80.3 °F 63.2 °F 30.11 in North 1.0 mph 2.0 mph 56% 0.00 in 638 W/m2
14:55 80.4 °F 61.7 °F 30.11 in North 2.0 mph 3.0 mph 53% 0.00 in 622 W/m2
15:02 80.7 °F 65.0 °F 30.11 in NNE 2.0 mph 6.0 mph 59% 0.00 in 599 W/m2
15:08 80.0 °F 62.4 °F 30.11 in North 3.0 mph 6.0 mph 55% 0.00 in 596 W/m2
15:13 79.8 °F 63.2 °F 30.11 in WNW 2.0 mph 4.0 mph 57% 0.00 in 209 W/m2
15:20 80.0 °F 62.9 °F 30.11 in WNW 1.0 mph 1.0 mph 56% 0.00 in 578 W/m2
15:25 80.5 °F 64.4 °F 30.11 in WNW 1.0 mph 1.0 mph 58% 0.00 in 561 W/m2
15:32 80.4 °F 62.2 °F 30.11 in NW 1.0 mph 4.0 mph 54% 0.00 in 538 W/m2
15:38 80.1 °F 63.0 °F 30.10 in NW 2.0 mph 4.0 mph 56% 0.00 in 527 W/m2
15:43 80.7 °F 64.1 °F 30.10 in NW 1.0 mph 2.0 mph 57% 0.00 in 517 W/m2
15:50 81.0 °F 63.8 °F 30.10 in Calm   1.0 mph 56% 0.00 in 497 W/m2
15:55 81.4 °F 63.7 °F 30.10 in Calm   2.0 mph 55% 0.00 in 496 W/m2
16:02 81.1 °F 62.3 °F 30.10 in North 1.0 mph 1.0 mph 53% 0.00 in 468 W/m2
16:08 80.6 °F 62.4 °F 30.10 in NW 1.0 mph 1.0 mph 54% 0.00 in 431 W/m2
16:15 80.6 °F 64.0 °F 30.10 in NNW 1.0 mph 2.0 mph 57% 0.00 in 425 W/m2
16:22 80.3 °F 63.7 °F 30.10 in Calm   1.0 mph 57% 0.00 in 408 W/m2
16:28 80.3 °F 63.2 °F 30.11 in NNW 1.0 mph 2.0 mph 56% 0.00 in 381 W/m2
16:33 80.0 °F 63.9 °F 30.11 in NW 2.0 mph 3.0 mph 58% 0.00 in 367 W/m2
16:45 79.9 °F 64.8 °F 30.10 in NW 1.0 mph 3.0 mph 60% 0.00 in 316 W/m2
16:52 79.8 °F 64.2 °F 30.10 in NW 1.0 mph 2.0 mph 59% 0.00 in 295 W/m2
16:58 79.9 °F 64.3 °F 30.10 in NW 1.0 mph 2.0 mph 59% 0.00 in 278 W/m2
17:03 79.7 °F 65.5 °F 30.10 in NW 1.0 mph 1.0 mph 62% 0.00 in 258 W/m2
17:09 79.8 °F 65.2 °F 30.10 in Calm     61% 0.00 in 237 W/m2
17:16 79.4 °F 64.8 °F 30.11 in NW 1.0 mph 1.0 mph 61% 0.00 in 211 W/m2
17:22 78.7 °F 65.0 °F 30.11 in NNW 1.0 mph 1.0 mph 63% 0.00 in 77 W/m2
17:28 77.8 °F 65.5 °F 30.10 in North 2.0 mph 5.0 mph 66% 0.00 in 77 W/m2
17:33 76.9 °F 65.5 °F 30.10 in NW 2.0 mph 4.0 mph 68% 0.00 in 163 W/m2
17:39 76.3 °F 65.4 °F 30.10 in NW 3.0 mph 3.0 mph 69% 0.00 in 137 W/m2
17:45 76.1 °F 65.2 °F 30.10 in WNW 2.0 mph 3.0 mph 69% 0.00 in 77 W/m2
17:52 75.7 °F 64.8 °F 30.10 in NNW 2.0 mph 3.0 mph 69% 0.00 in 91 W/m2
17:58 75.4 °F 64.5 °F 30.10 in NNE 2.0 mph 3.0 mph 69% 0.00 in 97 W/m2
18:04 75.0 °F 63.7 °F 30.10 in NW 2.0 mph 4.0 mph 68% 0.00 in 62 W/m2
18:09 74.5 °F 62.8 °F 30.10 in NNW 2.0 mph 2.0 mph 67% 0.00 in 51 W/m2
18:15 74.1 °F 62.9 °F 30.10 in North 2.0 mph 5.0 mph 68% 0.00 in 46 W/m2
18:22 73.6 °F 62.8 °F 30.10 in North 2.0 mph 3.0 mph 69% 0.00 in 39 W/m2
18:28 73.2 °F 62.4 °F 30.10 in North 1.0 mph 3.0 mph 69% 0.00 in 33 W/m2
18:33 72.8 °F 62.4 °F 30.10 in Calm   4.0 mph 70% 0.00 in 30 W/m2
18:39 72.5 °F 62.6 °F 30.10 in North 1.0 mph 1.0 mph 71% 0.00 in 25 W/m2
18:46 72.2 °F 62.7 °F 30.10 in North 1.0 mph 2.0 mph 72% 0.00 in 19 W/m2
18:52 71.7 °F 62.6 °F 30.10 in North 1.0 mph 1.0 mph 73% 0.00 in 14 W/m2
18:58 71.3 °F 62.6 °F 30.09 in North 1.0 mph 1.0 mph 74% 0.00 in 11 W/m2
19:03 70.9 °F 62.6 °F 30.09 in Calm   2.0 mph 75% 0.00 in 7 W/m2
19:10 70.3 °F 62.7 °F 30.09 in Calm     77% 0.00 in 0 W/m2
19:15 69.8 °F 63.0 °F 30.10 in Calm   2.0 mph 79% 0.00 in 0 W/m2
19:22 69.2 °F 62.4 °F 30.10 in Calm     79% 0.00 in 0 W/m2
19:28 68.7 °F 62.3 °F 30.10 in Calm     80% 0.00 in 0 W/m2
19:34 68.1 °F 62.4 °F 30.10 in Calm     82% 0.00 in 0 W/m2
19:39 67.6 °F 62.3 °F 30.10 in Calm     83% 0.00 in 0 W/m2
19:45 67.0 °F 62.0 °F 30.10 in Calm     84% 0.00 in 0 W/m2
19:58 65.9 °F 61.3 °F 30.10 in Calm     85% 0.00 in 0 W/m2
20:04 65.5 °F 61.2 °F 30.10 in Calm     86% 0.00 in 0 W/m2
20:10 65.1 °F 60.8 °F 30.10 in Calm     86% 0.00 in 0 W/m2
20:15 64.8 °F 60.8 °F 30.11 in Calm     87% 0.00 in 0 W/m2
20:22 64.5 °F 60.5 °F 30.11 in Calm     87% 0.00 in 0 W/m2
20:28 64.2 °F 60.6 °F 30.11 in Calm     88% 0.00 in 0 W/m2
20:33 64.0 °F 60.4 °F 30.11 in Calm     88% 0.00 in 0 W/m2
20:39 63.7 °F 60.1 °F 30.11 in Calm     88% 0.00 in 0 W/m2
20:45 63.5 °F 60.2 °F 30.12 in Calm     89% 0.00 in 0 W/m2
20:52 63.3 °F 60.0 °F 30.12 in Calm     89% 0.00 in 0 W/m2
20:58 63.1 °F 59.8 °F 30.12 in Calm     89% 0.00 in 0 W/m2
21:03 62.9 °F 59.9 °F 30.12 in Calm     90% 0.00 in 0 W/m2
21:09 62.6 °F 59.6 °F 30.12 in Calm     90% 0.00 in 0 W/m2
21:15 62.6 °F 59.6 °F 30.12 in Calm     90% 0.00 in 0 W/m2
21:22 62.4 °F 59.4 °F 30.12 in Calm     90% 0.00 in 0 W/m2
21:28 62.2 °F 59.2 °F 30.12 in Calm     90% 0.00 in 0 W/m2
21:33 62.2 °F 59.5 °F 30.11 in Calm     91% 0.00 in 0 W/m2
21:39 62.3 °F 59.6 °F 30.11 in Calm     91% 0.00 in 0 W/m2
21:46 62.2 °F 59.5 °F 30.12 in Calm     91% 0.00 in 0 W/m2
21:52 61.9 °F 59.2 °F 30.12 in Calm     91% 0.00 in 0 W/m2
21:58 61.7 °F 59.0 °F 30.12 in Calm     91% 0.00 in 0 W/m2
22:03 61.7 °F 59.4 °F 30.12 in Calm     92% 0.00 in 0 W/m2
22:09 61.5 °F 59.2 °F 30.12 in Calm     92% 0.00 in 0 W/m2
22:15 61.3 °F 59.0 °F 30.12 in Calm     92% 0.00 in 0 W/m2
22:22 61.1 °F 58.8 °F 30.12 in Calm     92% 0.00 in 0 W/m2
22:28 61.0 °F 58.7 °F 30.12 in Calm     92% 0.00 in 0 W/m2
22:33 60.8 °F 58.5 °F 30.12 in Calm     92% 0.00 in 0 W/m2
22:39 60.8 °F 58.5 °F 30.12 in Calm     92% 0.00 in 0 W/m2
22:45 60.6 °F 58.3 °F 30.12 in Calm     92% 0.00 in 0 W/m2
22:52 60.4 °F 58.1 °F 30.12 in Calm     92% 0.00 in 0 W/m2
22:58 60.5 °F 58.2 °F 30.12 in Calm     92% 0.00 in 0 W/m2
23:03 60.4 °F 58.1 °F 30.12 in Calm     92% 0.00 in 0 W/m2
23:09 60.3 °F 58.3 °F 30.12 in Calm     93% 0.00 in 0 W/m2
23:18 60.0 °F 57.7 °F 30.12 in Calm     92% 0.00 in 0 W/m2
23:23 59.8 °F 57.8 °F 30.12 in Calm     93% 0.00 in 0 W/m2
23:30 59.7 °F 57.7 °F 30.12 in Calm     93% 0.00 in 0 W/m2
23:35 59.8 °F 57.8 °F 30.12 in Calm     93% 0.00 in 0 W/m2
23:38 59.8 °F 57.8 °F 30.12 in Calm     93% 0.00 in 0 W/m2
23:39 59.7 °F 57.7 °F 30.12 in Calm     93% 0.00 in 0 W/m2
23:45 59.6 °F 57.6 °F 30.12 in Calm     93% 0.00 in 0 W/m2
23:52 59.6 °F 57.6 °F 30.12 in Calm     93% 0.00 in 0 W/m2
23:58 59.6 °F 57.6 °F 30.12 in Calm     93% 0.00 in 0 W/m2
Country Meadow, Clay, NY, USA
Compliments of Weather Underground - 2 mb